Time;durP1;ratioP1;P1;durP2;ratioP2;P2;SDS_P1;SDS_P2;PMS_P1;PMS_P2;Temp;Humidity;BMP_temperature;BMP_pressure;BME280_temperature;BME280_humidity;BME280_pressure;Samples;Min_cycle;Max_cycle;Signal;HPM_P1;HPM_P2
2022/11/01 00:01:38;;;;;;;34.90;4.28;;;12.80;99.90;;;;;;5015423;28;20061;-72
2022/11/01 00:04:07;;;;;;;37.38;4.55;;;12.80;99.90;;;;;;4998358;28;20053;-72
2022/11/01 00:06:35;;;;;;;46.63;4.63;;;12.70;99.90;;;;;;5015247;28;20060;-71
2022/11/01 00:09:03;;;;;;;37.28;4.45;;;12.70;99.90;;;;;;5014344;28;20057;-72
2022/11/01 00:11:31;;;;;;;;;;;12.50;99.90;;;;;;5015794;28;20052;-72
2022/11/01 00:13:58;;;;;;;30.60;4.35;;;12.50;99.90;;;;;;4998092;28;19921;-73
2022/11/01 00:16:26;;;;;;;31.65;4.18;;;12.40;99.90;;;;;;5014271;28;20060;-73
2022/11/01 00:18:53;;;;;;;41.60;4.28;;;12.30;99.90;;;;;;5015305;28;20042;-72
2022/11/01 00:21:21;;;;;;;34.88;4.13;;;12.10;99.90;;;;;;5015292;28;20515;-72
2022/11/01 00:23:48;;;;;;;40.88;3.90;;;12.10;99.90;;;;;;5014132;28;20049;-72
2022/11/01 00:26:21;;;;;;;31.70;3.88;;;12.00;99.90;;;;;;5015426;28;20069;-73
2022/11/01 00:28:49;;;;;;;53.42;4.95;;;12.30;99.90;;;;;;4997221;28;20049;-73
2022/11/01 00:31:19;;;;;;;32.25;4.35;;;11.80;99.90;;;;;;4982286;28;20070;-72
2022/11/01 00:33:46;;;;;;;34.90;3.90;;;11.80;99.90;;;;;;5015021;28;20381;-71
2022/11/01 00:36:14;;;;;;;33.45;4.53;;;11.70;99.90;;;;;;5014105;28;20373;-73
2022/11/01 00:38:41;;;;;;;39.72;5.32;;;11.70;99.90;;;;;;5014898;28;20038;-72
2022/11/01 00:41:09;;;;;;;43.97;4.72;;;11.60;99.90;;;;;;5014393;28;20046;-71
2022/11/01 00:43:36;;;;;;;39.90;4.05;;;11.60;99.90;;;;;;5013853;28;20085;-72
2022/11/01 00:46:04;;;;;;;42.58;5.25;;;11.70;99.90;;;;;;5015558;28;20053;-72
2022/11/01 00:48:31;;;;;;;45.97;4.88;;;11.80;99.90;;;;;;5013828;28;20046;-72
2022/11/01 00:50:59;;;;;;;43.90;5.45;;;11.80;99.90;;;;;;5015021;28;20041;-72
2022/11/01 00:53:26;;;;;;;37.73;4.10;;;11.90;99.90;;;;;;5015078;28;20364;-71
2022/11/01 00:56:02;;;;;;;37.83;4.53;;;11.80;99.90;;;;;;5013640;28;20346;-71
2022/11/01 00:58:30;;;;;;;30.85;3.50;;;11.80;99.90;;;;;;5015402;28;20042;-72
2022/11/01 01:00:58;;;;;;;34.67;4.13;;;11.80;99.90;;;;;;5014840;28;20053;-71
2022/11/01 01:03:25;;;;;;;;;;;11.70;99.90;;;;;;5014194;28;20058;-71
2022/11/01 01:05:53;;;;;;;29.10;3.23;;;11.70;99.90;;;;;;5014973;28;20268;-72
2022/11/01 01:08:21;;;;;;;23.92;3.70;;;11.60;99.90;;;;;;5013617;28;20465;-72
2022/11/01 01:10:49;;;;;;;19.48;2.90;;;11.60;99.90;;;;;;5014672;28;20054;-71
2022/11/01 01:13:16;;;;;;;26.10;3.25;;;11.50;99.90;;;;;;5014566;28;20041;-72
2022/11/01 01:15:44;;;;;;;18.27;2.90;;;11.40;99.90;;;;;;5013630;28;20049;-71
2022/11/01 01:18:12;;;;;;;26.00;3.25;;;11.40;99.90;;;;;;5014631;28;20477;-72
2022/11/01 01:20:39;;;;;;;24.05;2.95;;;11.30;99.90;;;;;;5014756;28;20334;-72
2022/11/01 01:23:07;;;;;;;26.50;3.20;;;11.30;99.90;;;;;;5013437;28;20373;-72
2022/11/01 01:25:39;;;;;;;25.70;3.22;;;11.30;99.90;;;;;;4997796;28;20061;-72
2022/11/01 01:28:06;;;;;;;25.38;3.05;;;11.30;99.90;;;;;;5015116;28;20480;-72
2022/11/01 01:30:38;;;;;;;25.85;3.13;;;11.30;99.90;;;;;;5013612;28;20064;-71
2022/11/01 01:33:05;;;;;;;30.67;3.67;;;11.30;99.90;;;;;;5014786;28;20041;-71
2022/11/01 01:35:33;;;;;;;24.35;3.70;;;11.40;99.90;;;;;;5013355;28;20053;-72
2022/11/01 01:38:00;;;;;;;32.25;4.03;;;11.30;99.90;;;;;;4997352;28;20049;-72
2022/11/01 01:40:28;;;;;;;28.85;3.85;;;11.30;99.90;;;;;;5014736;28;20049;-72
2022/11/01 01:42:56;;;;;;;31.95;4.32;;;11.30;99.90;;;;;;5013570;28;20167;-71
2022/11/01 01:45:30;;;;;;;30.40;3.95;;;11.30;99.90;;;;;;4997426;28;20056;-71
2022/11/01 01:48:22;;;;;;;27.80;3.88;;;11.30;99.90;;;;;;5014592;28;20054;-72
2022/11/01 01:50:56;;;;;;;31.77;4.20;;;11.30;99.90;;;;;;5014780;28;20331;-71
2022/11/01 01:53:34;;;;;;;32.33;3.72;;;11.40;99.90;;;;;;5018020;28;20057;-72
2022/11/01 01:56:08;;;;;;;36.65;4.68;;;11.40;99.90;;;;;;5016867;28;20042;-71
2022/11/01 01:58:44;;;;;;;34.72;4.50;;;11.40;99.90;;;;;;5018018;28;20054;-71
2022/11/01 02:01:12;;;;;;;42.67;4.70;;;11.40;99.90;;;;;;5018468;28;20488;-71
2022/11/01 02:03:41;;;;;;;44.83;5.78;;;11.40;99.90;;;;;;5016817;28;20041;-72
2022/11/01 02:06:17;;;;;;;40.83;4.95;;;11.40;99.90;;;;;;5017851;28;20361;-72
2022/11/01 02:08:54;;;;;;;46.67;5.00;;;11.90;99.90;;;;;;5016540;28;20480;-71
2022/11/01 02:11:22;;;;;;;36.10;4.32;;;11.50;99.90;;;;;;5018084;28;20050;-72
2022/11/01 02:13:49;;;;;;;40.55;5.43;;;11.50;99.90;;;;;;5017476;28;20046;-71
2022/11/01 02:16:35;;;;;;;44.05;5.50;;;11.60;99.90;;;;;;5016844;28;20042;-72
2022/11/01 02:19:21;;;;;;;34.53;4.63;;;11.60;99.90;;;;;;5017569;28;20053;-72
2022/11/01 02:22:19;;;;;;;34.10;4.50;;;11.60;99.90;;;;;;5016351;28;20054;-72
2022/11/01 02:25:23;;;;;;;44.53;4.65;;;11.60;99.90;;;;;;5009909;28;20401;-71
2022/11/01 02:28:13;;;;;;;42.75;4.70;;;11.70;99.90;;;;;;5000794;28;20326;-71
2022/11/01 02:30:45;;;;;;;45.45;4.90;;;11.70;99.90;;;;;;5016140;28;20381;-72
2022/11/01 02:33:28;;;;;;;37.22;4.70;;;11.70;99.90;;;;;;5017280;28;20368;-71
2022/11/01 02:36:03;;;;;;;37.30;4.57;;;11.80;99.90;;;;;;5016035;28;20049;-72
2022/11/01 02:39:09;;;;;;;24.88;3.75;;;11.80;99.90;;;;;;5000658;28;20042;-71
2022/11/01 02:42:07;;;;;;;26.75;2.95;;;11.80;99.90;;;;;;4968774;28;20046;-71
2022/11/01 02:44:40;;;;;;;17.35;2.30;;;11.80;99.90;;;;;;4996620;28;20053;-71
2022/11/01 02:47:10;;;;;;;19.90;2.95;;;11.90;99.90;;;;;;5017499;28;20050;-72
2022/11/01 02:49:41;;;;;;;24.08;2.80;;;12.00;99.90;;;;;;5016154;28;20045;-71
2022/11/01 02:52:20;;;;;;;14.77;1.92;;;12.00;99.90;;;;;;5017085;28;20052;-71
2022/11/01 02:54:52;;;;;;;18.15;2.20;;;12.00;99.90;;;;;;5016942;28;20046;-72
2022/11/01 02:57:38;;;;;;;15.30;2.13;;;12.00;99.90;;;;;;5015676;28;20050;-72
2022/11/01 03:00:35;;;;;;;14.70;1.83;;;12.00;99.90;;;;;;5017207;28;20057;-71
2022/11/01 03:03:14;;;;;;;11.05;1.27;;;12.00;99.90;;;;;;4995064;28;20069;-71
2022/11/01 03:05:59;;;;;;;13.18;1.52;;;12.00;99.90;;;;;;5017171;28;20057;-72
2022/11/01 03:08:49;;;;;;;15.18;1.73;;;11.90;99.90;;;;;;5015891;28;20058;-72
2022/11/01 03:11:34;;;;;;;20.30;2.05;;;11.90;99.90;;;;;;5016113;28;20058;-72
2022/11/01 03:14:19;;;;;;;20.25;2.35;;;11.80;99.90;;;;;;5016814;28;20465;-71
2022/11/01 03:16:52;;;;;;;20.05;2.45;;;11.80;99.90;;;;;;5015599;28;20046;-71
2022/11/01 03:19:28;;;;;;;13.73;2.25;;;11.70;99.90;;;;;;5016598;28;20050;-72
2022/11/01 03:22:01;;;;;;;21.95;2.53;;;11.60;99.90;;;;;;5015111;28;20050;-71
2022/11/01 03:24:39;;;;;;;27.92;3.08;;;11.50;99.90;;;;;;5016243;28;20050;-71
2022/11/01 03:27:19;;;;;;;27.70;2.95;;;11.50;99.90;;;;;;5015745;28;20060;-71
2022/11/01 03:29:55;;;;;;;28.60;3.30;;;11.40;99.90;;;;;;5015269;28;20057;-72
2022/11/01 03:32:28;;;;;;;32.03;3.88;;;11.50;99.90;;;;;;5015966;28;20049;-72
2022/11/01 03:34:59;;;;;;;33.22;4.15;;;11.20;99.90;;;;;;5016296;28;20373;-72
2022/11/01 03:37:29;;;;;;;37.47;3.70;;;11.10;99.90;;;;;;5016080;28;20046;-72
2022/11/01 03:40:01;;;;;;;34.92;3.78;;;11.10;99.90;;;;;;5016203;28;20046;-72
2022/11/01 03:42:31;;;;;;;36.70;3.80;;;11.40;99.90;;;;;;5015018;28;20372;-72
2022/11/01 03:45:05;;;;;;;30.15;4.05;;;10.90;99.90;;;;;;5016087;28;20045;-72
2022/11/01 03:47:34;;;;;;;40.45;3.95;;;11.20;99.90;;;;;;5015542;28;20126;-71
2022/11/01 03:50:13;;;;;;;40.40;4.32;;;10.70;99.90;;;;;;5014833;28;20046;-72
2022/11/01 03:52:41;;;;;;;43.28;4.38;;;10.70;99.90;;;;;;5015783;28;20046;-71
2022/11/01 03:55:19;;;;;;;41.00;4.10;;;10.80;99.90;;;;;;5013742;28;20042;-71
2022/11/01 03:57:47;;;;;;;30.95;4.28;;;11.00;99.90;;;;;;5015350;28;20069;-72
2022/11/01 04:00:20;;;;;;;30.35;3.72;;;11.00;99.90;;;;;;5015557;28;20041;-71
2022/11/01 04:02:50;;;;;;;34.45;4.07;;;10.80;99.90;;;;;;5014587;28;20041;-72
2022/11/01 04:05:20;;;;;;;32.72;3.80;;;10.70;99.90;;;;;;5015817;28;20050;-72
2022/11/01 04:07:50;;;;;;;35.78;3.75;;;10.60;99.90;;;;;;5015276;28;20491;-72
2022/11/01 04:10:19;;;;;;;38.20;3.88;;;10.50;99.90;;;;;;4997333;28;20054;-71
2022/11/01 04:12:48;;;;;;;41.63;4.13;;;10.50;99.90;;;;;;5015325;28;20049;-72
2022/11/01 04:20:52;;;;;;;29.23;4.05;;;10.50;99.90;;;;;;5015456;28;20060;-73
2022/11/01 04:23:20;;;;;;;36.15;4.35;;;10.50;99.90;;;;;;5014325;28;20346;-71
2022/11/01 04:25:47;;;;;;;30.35;3.47;;;10.50;99.90;;;;;;4998376;28;20061;-72
2022/11/01 04:28:15;;;;;;;31.60;4.30;;;10.60;99.90;;;;;;4998115;28;20478;-72
2022/11/01 04:30:42;;;;;;;30.83;3.58;;;10.50;99.90;;;;;;5013997;28;20050;-72
2022/11/01 04:33:10;;;;;;;29.50;3.55;;;10.60;99.90;;;;;;5014966;28;20053;-71
2022/11/01 04:35:38;;;;;;;26.35;3.33;;;10.90;99.90;;;;;;5014222;28;20049;-72
2022/11/01 04:38:05;;;;;;;28.30;3.38;;;10.60;99.90;;;;;;5015483;28;20049;-72
2022/11/01 04:40:33;;;;;;;29.23;3.60;;;10.70;99.90;;;;;;4997914;28;20046;-71
2022/11/01 04:43:01;;;;;;;27.83;3.33;;;10.70;99.90;;;;;;5013962;28;20049;-71
2022/11/01 04:45:29;;;;;;;34.88;3.50;;;10.70;99.90;;;;;;5014504;28;20045;-71
2022/11/01 04:48:15;;;;;;;28.38;3.22;;;10.80;99.90;;;;;;5015082;28;20038;-73
2022/11/01 04:50:44;;;;;;;33.28;3.53;;;10.80;99.90;;;;;;4996937;28;20065;-72
2022/11/01 04:53:12;;;;;;;27.90;3.33;;;11.30;99.90;;;;;;5014779;28;20042;-73
2022/11/01 04:55:40;;;;;;;26.73;3.50;;;10.90;99.90;;;;;;5013861;28;20057;-71
2022/11/01 04:58:09;;;;;;;25.42;3.30;;;10.90;99.90;;;;;;5014858;28;20052;-72
2022/11/01 05:00:37;;;;;;;32.00;3.53;;;11.00;99.90;;;;;;5015238;28;20385;-72
2022/11/01 05:03:06;;;;;;;20.75;3.33;;;11.00;99.90;;;;;;5013717;28;20050;-71
2022/11/01 05:05:34;;;;;;;28.58;3.35;;;11.20;99.90;;;;;;5014923;28;20050;-72
2022/11/01 05:08:07;;;;;;;24.77;3.40;;;11.00;99.90;;;;;;5027224;28;20057;-71
2022/11/01 05:10:37;;;;;;;30.20;3.13;;;11.10;99.90;;;;;;5033387;28;20349;-72
2022/11/01 05:13:05;;;;;;;15.63;2.63;;;11.10;99.90;;;;;;5034379;28;20042;-73
2022/11/01 05:15:33;;;;;;;28.45;3.50;;;11.10;99.90;;;;;;5033394;28;20050;-71
2022/11/01 05:18:06;;;;;;;34.97;3.30;;;11.20;99.90;;;;;;5034494;28;20045;-71
2022/11/01 05:20:33;;;;;;;32.60;3.92;;;11.20;99.90;;;;;;5034221;28;20046;-71
2022/11/01 05:23:02;;;;;;;32.22;3.58;;;11.30;99.90;;;;;;5033196;28;20053;-71
2022/11/01 05:25:31;;;;;;;35.45;3.63;;;11.20;99.90;;;;;;5034730;28;20046;-72
2022/11/01 05:28:07;;;;;;;31.50;3.67;;;11.20;99.90;;;;;;5038407;28;20046;-72
2022/11/01 05:30:36;;;;;;;25.20;3.80;;;11.20;99.90;;;;;;5036273;28;20045;-71
2022/11/01 05:33:05;;;;;;;30.30;3.45;;;11.50;99.90;;;;;;5037089;28;20041;-72
2022/11/01 05:35:34;;;;;;;32.67;4.20;;;11.30;99.90;;;;;;5037615;28;20046;-72
2022/11/01 05:38:03;;;;;;;30.38;4.10;;;11.30;99.90;;;;;;5038335;28;20045;-71
2022/11/01 05:40:31;;;;;;;38.78;4.70;;;11.40;99.90;;;;;;5037970;28;20042;-71
2022/11/01 05:42:59;;;;;;;31.70;4.72;;;11.20;99.90;;;;;;5036877;28;20049;-72
2022/11/01 05:45:27;;;;;;;40.50;4.88;;;11.30;99.90;;;;;;5037850;28;20052;-71
2022/11/01 05:47:55;;;;;;;53.75;5.50;;;11.20;99.90;;;;;;5053573;28;20053;-72
2022/11/01 05:50:23;;;;;;;36.08;5.10;;;11.20;99.90;;;;;;5035676;28;20064;-72
2022/11/01 05:52:50;;;;;;;42.43;4.57;;;11.20;99.90;;;;;;5038128;28;20038;-71
2022/11/01 05:55:18;;;;;;;44.60;5.43;;;11.60;99.90;;;;;;5052618;28;20293;-72
2022/11/01 05:57:45;;;;;;;38.85;4.93;;;11.20;99.90;;;;;;5020578;28;20065;-72
2022/11/01 06:00:18;;;;;;;45.95;4.65;;;11.30;99.90;;;;;;5037006;28;20064;-72
2022/11/01 06:02:45;;;;;;;41.83;5.13;;;11.40;99.90;;;;;;5036491;28;20045;-72
2022/11/01 06:05:13;;;;;;;42.72;4.50;;;11.40;99.90;;;;;;5038112;28;20049;-71
2022/11/01 06:07:40;;;;;;;52.80;5.40;;;11.60;99.90;;;;;;5023549;28;20050;-72
2022/11/01 06:10:08;;;;;;;40.50;5.23;;;11.80;99.90;;;;;;5016831;28;20046;-71
2022/11/01 06:12:35;;;;;;;54.58;6.30;;;11.80;99.90;;;;;;5017775;28;20286;-71
2022/11/01 06:15:03;;;;;;;43.83;5.38;;;12.00;99.90;;;;;;5017175;28;20046;-71
2022/11/01 06:17:30;;;;;;;50.38;5.57;;;11.80;99.90;;;;;;5018324;28;20037;-70
2022/11/01 06:19:58;;;;;;;52.37;5.77;;;11.70;99.90;;;;;;5000540;28;20042;-72
2022/11/01 06:22:26;;;;;;;59.78;6.10;;;11.70;99.90;;;;;;5016648;28;20279;-71
2022/11/01 06:24:53;;;;;;;40.47;4.88;;;11.70;99.90;;;;;;5017652;28;20460;-71
2022/11/01 06:27:21;;;;;;;51.63;5.57;;;11.70;99.90;;;;;;5017493;28;20053;-72
2022/11/01 06:29:48;;;;;;;53.17;6.03;;;11.70;99.90;;;;;;5016469;28;20053;-71
2022/11/01 06:32:15;;;;;;;45.13;5.28;;;11.70;99.90;;;;;;5016440;28;20054;-71
2022/11/01 06:34:43;;;;;;;52.15;6.15;;;11.70;99.90;;;;;;5017277;28;20065;-71
2022/11/01 06:37:11;;;;;;;55.90;5.88;;;11.70;99.90;;;;;;5015948;28;20041;-73
2022/11/01 06:39:39;;;;;;;45.83;5.47;;;11.80;99.90;;;;;;5000166;28;20061;-71
2022/11/01 06:42:07;;;;;;;45.25;5.45;;;11.80;99.90;;;;;;5015954;28;20046;-73
2022/11/01 06:44:34;;;;;;;;;;;11.90;99.90;;;;;;5017809;28;20061;-73
2022/11/01 06:47:02;;;;;;;55.33;5.72;;;12.00;99.90;;;;;;4999844;28;19948;-72
2022/11/01 06:49:30;;;;;;;41.92;5.20;;;12.10;99.90;;;;;;5015868;28;20465;-72
2022/11/01 06:51:57;;;;;;;;;;;12.30;99.90;;;;;;5017477;28;20057;-71
2022/11/01 06:54:25;;;;;;;44.63;5.47;;;12.30;99.90;;;;;;4999675;28;19921;-71
2022/11/01 06:56:52;;;;;;;34.85;5.38;;;12.30;99.90;;;;;;4998737;28;20057;-71
2022/11/01 06:59:20;;;;;;;42.63;5.60;;;12.40;99.90;;;;;;5016787;28;20065;-72
2022/11/01 07:01:47;;;;;;;40.78;5.13;;;12.60;99.90;;;;;;5015690;28;20284;-72
2022/11/01 07:04:15;;;;;;;37.92;5.03;;;12.40;99.90;;;;;;5016828;28;20046;-71
2022/11/01 07:06:43;;;;;;;43.10;5.80;;;12.50;99.90;;;;;;5016538;28;20468;-71
2022/11/01 07:09:10;;;;;;;45.75;5.85;;;12.70;99.90;;;;;;5015769;28;20056;-72
2022/11/01 07:11:38;;;;;;;38.37;6.10;;;12.90;99.90;;;;;;5016914;28;20065;-71
2022/11/01 07:14:05;;;;;;;44.20;5.85;;;12.70;99.90;;;;;;5016757;28;20050;-71
2022/11/01 07:16:33;;;;;;;54.72;6.72;;;12.70;99.90;;;;;;5015564;28;20472;-71
2022/11/01 07:19:00;;;;;;;41.47;5.50;;;12.80;99.90;;;;;;5016361;28;20577;-74
2022/11/01 07:21:28;;;;;;;50.20;6.07;;;12.80;99.90;;;;;;4999132;28;20507;-72
2022/11/01 07:23:55;;;;;;;57.03;6.40;;;12.80;99.90;;;;;;5015156;28;20049;-72
2022/11/01 07:26:23;;;;;;;50.95;5.80;;;12.80;99.90;;;;;;5033139;28;20287;-73
2022/11/01 07:28:50;;;;;;;52.00;6.35;;;12.80;99.90;;;;;;5017892;28;20065;-72
2022/11/01 07:31:18;;;;;;;41.35;5.90;;;12.80;99.90;;;;;;5036142;28;20037;-72
2022/11/01 07:33:45;;;;;;;40.58;5.88;;;12.90;99.90;;;;;;5035892;28;20448;-72
2022/11/01 07:36:13;;;;;;;48.53;5.97;;;13.00;99.90;;;;;;5034811;28;20045;-72
2022/11/01 07:38:40;;;;;;;50.80;6.00;;;13.10;99.90;;;;;;5018652;28;20045;-73
2022/11/01 07:41:08;;;;;;;43.88;6.13;;;13.00;99.90;;;;;;5035888;28;20052;-72
2022/11/01 07:43:37;;;;;;;53.55;7.05;;;13.20;99.90;;;;;;5034714;28;20060;-72
2022/11/01 07:46:06;;;;;;;45.17;5.45;;;13.10;99.90;;;;;;5036026;28;20056;-72
2022/11/01 07:48:35;;;;;;;51.67;5.63;;;13.20;99.90;;;;;;5034097;28;20050;-72
2022/11/01 07:51:04;;;;;;;44.78;5.97;;;13.20;99.90;;;;;;5035513;28;20053;-72
2022/11/01 07:53:33;;;;;;;46.55;6.13;;;13.30;99.90;;;;;;5018929;28;20053;-72
2022/11/01 07:56:01;;;;;;;42.47;5.10;;;13.30;99.90;;;;;;5000990;28;20045;-73
2022/11/01 07:58:28;;;;;;;48.28;6.07;;;13.20;99.90;;;;;;5035662;28;20049;-72
2022/11/01 08:00:56;;;;;;;46.28;5.90;;;13.30;99.90;;;;;;5034695;28;20041;-72
2022/11/01 08:03:24;;;;;;;40.60;5.20;;;13.30;99.90;;;;;;5033950;28;20045;-72
2022/11/01 08:05:51;;;;;;;41.15;5.15;;;13.30;99.90;;;;;;5035115;28;20060;-74
2022/11/01 08:08:22;;;;;;;45.28;5.32;;;13.40;99.90;;;;;;5033864;28;20053;-71
2022/11/01 08:10:49;;;;;;;46.45;6.30;;;13.40;99.90;;;;;;5034989;28;20050;-71
2022/11/01 08:13:20;;;;;;;43.22;5.43;;;13.50;99.90;;;;;;5034960;28;20452;-71
2022/11/01 08:15:49;;;;;;;40.88;5.47;;;13.60;99.90;;;;;;5033455;28;20053;-70
2022/11/01 08:18:17;;;;;;;40.22;5.45;;;13.70;99.90;;;;;;5034809;28;20483;-72
2022/11/01 08:20:45;;;;;;;38.50;4.72;;;13.80;99.90;;;;;;5034757;28;20049;-71
2022/11/01 08:23:12;;;;;;;39.05;5.68;;;13.70;99.90;;;;;;5033624;28;20052;-72
2022/11/01 08:25:40;;;;;;;46.53;5.50;;;13.70;99.90;;;;;;5034870;28;20057;-71
2022/11/01 08:28:14;;;;;;;47.63;5.78;;;13.80;99.90;;;;;;5017380;28;20050;-71
2022/11/01 08:30:43;;;;;;;38.03;5.00;;;13.80;99.90;;;;;;5033381;28;20364;-71
2022/11/01 08:33:10;;;;;;;36.17;5.20;;;13.80;99.90;;;;;;5034594;28;20057;-70
2022/11/01 08:35:38;;;;;;;40.67;5.43;;;13.90;99.90;;;;;;5033548;28;20048;-72
2022/11/01 08:38:06;;;;;;;35.95;5.45;;;13.90;99.90;;;;;;5034534;28;20046;-71
2022/11/01 08:40:33;;;;;;;45.92;5.38;;;13.90;99.90;;;;;;5034454;28;20069;-71
2022/11/01 08:43:01;;;;;;;42.58;4.70;;;13.80;99.90;;;;;;5021457;28;20038;-72
2022/11/01 08:45:29;;;;;;;;;;;13.80;99.90;;;;;;5015754;28;20441;-72
2022/11/01 08:47:58;;;;;;;39.17;4.45;;;13.80;99.90;;;;;;5015208;28;19940;-71
2022/11/01 08:50:26;;;;;;;35.85;4.85;;;13.80;99.90;;;;;;5013950;28;20053;-72
2022/11/01 08:52:54;;;;;;;36.33;4.60;;;13.80;99.90;;;;;;4997931;28;20058;-73
2022/11/01 08:55:21;;;;;;;32.97;4.68;;;13.80;99.90;;;;;;4997284;28;20060;-71
2022/11/01 08:57:49;;;;;;;33.08;5.40;;;14.00;99.90;;;;;;5014941;28;20069;-72
2022/11/01 09:00:17;;;;;;;38.13;4.65;;;13.90;99.90;;;;;;4997628;28;20457;-71
2022/11/01 09:02:45;;;;;;;40.78;5.07;;;14.00;99.90;;;;;;4984392;28;20045;-72
2022/11/01 09:05:12;;;;;;;41.63;4.85;;;13.90;99.90;;;;;;5019038;28;20049;-72
2022/11/01 09:07:40;;;;;;;51.07;5.50;;;13.90;99.90;;;;;;5018639;28;20054;-71
2022/11/01 09:10:08;;;;;;;35.67;4.43;;;13.80;99.90;;;;;;5016637;28;20302;-71
2022/11/01 09:12:36;;;;;;;43.78;4.60;;;13.70;99.90;;;;;;5012424;28;20046;-72
2022/11/01 09:15:04;;;;;;;54.03;5.40;;;12.90;99.90;;;;;;5018413;28;20058;-72
2022/11/01 09:17:32;;;;;;;36.13;4.82;;;13.60;99.90;;;;;;5028920;28;20053;-72
2022/11/01 09:19:59;;;;;;;40.15;4.50;;;13.50;99.90;;;;;;5036760;28;20057;-72
2022/11/01 09:22:27;;;;;;;34.33;4.25;;;13.50;99.90;;;;;;5018328;28;20473;-74
2022/11/01 09:24:57;;;;;;;45.15;5.28;;;13.40;99.90;;;;;;5021449;28;20068;-74
2022/11/01 09:27:24;;;;;;;44.13;4.95;;;13.50;99.90;;;;;;5001542;28;20128;-76
2022/11/01 09:29:52;;;;;;;48.83;5.80;;;13.50;99.90;;;;;;5029072;28;20049;-74
2022/11/01 09:32:20;;;;;;;42.30;5.07;;;13.50;99.90;;;;;;5038068;28;20602;-73
2022/11/01 09:34:50;;;;;;;43.92;5.35;;;13.60;99.90;;;;;;5020610;28;20057;-72
2022/11/01 09:37:17;;;;;;;45.85;5.47;;;13.70;99.90;;;;;;5018961;28;20045;-72
2022/11/01 09:39:45;;;;;;;40.50;5.25;;;13.80;99.90;;;;;;5026928;28;20048;-75
2022/11/01 09:42:38;;;;;;;42.88;5.72;;;13.90;99.90;;;;;;5024110;28;20049;-74
2022/11/01 09:45:19;;;;;;;47.35;5.75;;;13.90;99.90;;;;;;5023594;28;20038;-76
2022/11/01 09:47:52;;;;;;;45.75;5.45;;;14.00;99.90;;;;;;5026896;28;20042;-75
2022/11/01 09:50:36;;;;;;;49.15;5.72;;;14.00;99.90;;;;;;5033623;28;20041;-76
2022/11/01 09:53:17;;;;;;;50.55;6.03;;;14.10;99.90;;;;;;5020808;28;20064;-75
2022/11/01 09:56:03;;;;;;;43.97;5.13;;;14.20;99.90;;;;;;5018878;28;20403;-73
2022/11/01 09:58:45;;;;;;;38.55;5.10;;;14.30;99.90;;;;;;5037916;28;20050;-75
2022/11/01 10:01:16;;;;;;;48.58;5.60;;;14.40;99.90;;;;;;5038007;28;20060;-74
2022/11/01 10:04:19;;;;;;;38.72;5.32;;;14.50;99.90;;;;;;5036569;28;20456;-74
2022/11/01 10:06:56;;;;;;;45.88;5.20;;;14.60;99.90;;;;;;4977838;28;20427;-75
2022/11/01 10:09:48;;;;;;;54.10;6.00;;;14.60;99.90;;;;;;5055978;28;20052;-73
2022/11/01 10:12:45;;;;;;;43.75;5.35;;;14.40;99.90;;;;;;5056477;28;20045;-74
2022/11/01 10:15:34;;;;;;;39.90;4.45;;;14.20;99.90;;;;;;5055863;28;20060;-73
2022/11/01 10:18:35;;;;;;;42.05;4.72;;;13.90;99.90;;;;;;5057080;28;20408;-75
2022/11/01 10:21:11;;;;;;;44.53;5.00;;;13.80;99.90;;;;;;5055932;28;20379;-73
2022/11/01 10:23:50;;;;;;;40.35;5.43;;;13.70;99.90;;;;;;5055021;28;20053;-74
2022/11/01 10:26:27;;;;;;;45.60;4.65;;;13.60;99.90;;;;;;5057064;28;20060;-76
2022/11/01 10:29:30;;;;;;;38.45;4.60;;;13.50;99.90;;;;;;5055631;28;20053;-76
2022/11/01 10:31:59;;;;;;;32.90;4.50;;;13.50;99.90;;;;;;5056867;28;20049;-74
2022/11/01 10:34:34;;;;;;;30.23;4.35;;;13.60;99.90;;;;;;5056882;28;20056;-74
2022/11/01 10:37:25;;;;;;;34.97;4.30;;;13.60;99.90;;;;;;5055988;28;20056;-74
2022/11/01 10:39:58;;;;;;;29.85;3.42;;;13.50;99.90;;;;;;5056601;28;20045;-73
2022/11/01 10:42:32;;;;;;;30.92;3.53;;;13.50;99.90;;;;;;5055288;28;20048;-77
2022/11/01 10:45:06;;;;;;;26.30;3.75;;;13.40;99.90;;;;;;5056050;28;20041;-75
2022/11/01 10:47:33;;;;;;;18.88;2.83;;;13.30;99.90;;;;;;5056121;28;20387;-75
2022/11/01 10:50:09;;;;;;;28.55;2.53;;;13.30;99.90;;;;;;5054201;28;20041;-76
2022/11/01 10:52:52;;;;;;;13.63;1.85;;;13.30;99.90;;;;;;5056350;28;20047;-75
2022/11/01 10:55:34;;;;;;;13.65;1.88;;;13.20;99.90;;;;;;5055015;28;20695;-75
2022/11/01 10:58:06;;;;;;;12.82;2.25;;;13.10;99.90;;;;;;5055869;28;20472;-74
2022/11/01 11:00:38;;;;;;;11.60;1.98;;;13.00;99.90;;;;;;5055626;28;20059;-73
2022/11/01 11:03:32;;;;;;;10.38;1.70;;;13.00;99.90;;;;;;5054690;28;20045;-75
2022/11/01 11:06:05;;;;;;;15.70;2.20;;;12.90;99.90;;;;;;5052500;28;20057;-74
2022/11/01 11:08:35;;;;;;;16.13;2.15;;;11.40;99.90;;;;;;5034637;28;20052;-74
2022/11/01 11:11:06;;;;;;;24.58;2.63;;;12.80;99.90;;;;;;5035664;28;20049;-75
2022/11/01 11:13:34;;;;;;;20.55;2.50;;;12.80;99.90;;;;;;5035766;28;20373;-74
2022/11/01 11:16:04;;;;;;;22.38;2.85;;;12.80;99.90;;;;;;5034323;28;20053;-75
2022/11/01 11:18:54;;;;;;;23.27;3.05;;;12.80;99.90;;;;;;5035674;28;20049;-75
2022/11/01 11:21:21;;;;;;;23.17;2.67;;;12.80;99.90;;;;;;5018019;28;20045;-74
2022/11/01 11:23:54;;;;;;;26.15;2.92;;;12.80;99.90;;;;;;5033489;28;20049;-74
2022/11/01 11:26:24;;;;;;;20.73;2.40;;;12.90;99.90;;;;;;5035594;28;20072;-74
2022/11/01 11:28:55;;;;;;;20.50;2.88;;;13.60;99.90;;;;;;5016577;28;20484;-74
2022/11/01 11:31:27;;;;;;;23.67;2.90;;;13.10;99.90;;;;;;5018017;28;20064;-75
2022/11/01 11:34:22;;;;;;;21.70;2.60;;;13.30;99.90;;;;;;5035436;28;20045;-75
2022/11/01 11:36:51;;;;;;;20.05;2.85;;;13.40;99.90;;;;;;5034313;28;20041;-75
2022/11/01 11:39:28;;;;;;;21.83;3.00;;;13.50;99.90;;;;;;5035241;28;20045;-74
2022/11/01 11:42:19;;;;;;;25.23;3.10;;;13.60;99.90;;;;;;5034016;28;20076;-75
2022/11/01 11:44:53;;;;;;;21.73;3.22;;;13.70;99.90;;;;;;5034774;28;20041;-74
2022/11/01 11:47:33;;;;;;;24.35;3.13;;;13.80;99.90;;;;;;5017846;28;20384;-74
2022/11/01 11:50:15;;;;;;;32.70;4.25;;;14.00;99.90;;;;;;5034074;28;20376;-74
2022/11/01 11:52:43;;;;;;;27.23;3.45;;;14.30;99.90;;;;;;5035039;28;20076;-75
2022/11/01 11:55:28;;;;;;;28.60;3.55;;;14.40;99.90;;;;;;5033898;28;20045;-75
2022/11/01 11:57:56;;;;;;;23.92;3.50;;;14.50;99.90;;;;;;5034641;28;20045;-74
2022/11/01 12:00:27;;;;;;;40.03;4.53;;;14.50;99.90;;;;;;5017617;28;20053;-75
2022/11/01 12:02:54;;;;;;;27.92;3.67;;;14.50;99.90;;;;;;5016621;28;20053;-75
2022/11/01 12:05:27;;;;;;;27.23;3.58;;;14.40;99.90;;;;;;5017876;28;20053;-75
2022/11/01 12:07:56;;;;;;;20.60;3.00;;;14.30;99.90;;;;;;5022389;28;20049;-75
2022/11/01 12:10:37;;;;;;;27.95;3.30;;;12.20;99.90;;;;;;5013942;28;20050;-73
2022/11/01 12:13:25;;;;;;;19.80;2.90;;;14.00;99.90;;;;;;5014522;28;20061;-75
2022/11/01 12:16:11;;;;;;;17.38;2.40;;;13.80;99.90;;;;;;5013908;28;20054;-74
2022/11/01 12:18:45;;;;;;;21.52;2.85;;;13.70;99.90;;;;;;5014879;28;20061;-73
2022/11/01 12:21:22;;;;;;;25.90;3.20;;;12.60;99.90;;;;;;5012809;28;20377;-74
2022/11/01 12:23:53;;;;;;;26.65;4.00;;;13.70;99.90;;;;;;5017435;28;20366;-73
2022/11/01 12:26:26;;;;;;;28.70;3.50;;;13.70;99.90;;;;;;5010544;28;20380;-73
2022/11/01 12:29:25;;;;;;;32.05;3.80;;;13.80;99.90;;;;;;5013790;28;20042;-73
2022/11/01 12:31:58;;;;;;;30.15;3.88;;;13.80;99.90;;;;;;5009696;28;20061;-73
2022/11/01 12:34:31;;;;;;;33.30;4.68;;;13.90;99.90;;;;;;4997280;28;20042;-72
2022/11/01 12:37:14;;;;;;;24.58;4.00;;;14.10;99.90;;;;;;4996367;28;20041;-73
2022/11/01 12:39:55;;;;;;;35.58;4.82;;;14.30;99.90;;;;;;4996673;28;20048;-73
2022/11/01 12:42:28;;;;;;;39.55;4.28;;;14.40;99.90;;;;;;5013599;28;20368;-73
2022/11/01 12:45:03;;;;;;;29.13;4.20;;;14.60;99.90;;;;;;4997841;28;20060;-73
2022/11/01 12:47:40;;;;;;;36.88;5.55;;;14.70;99.90;;;;;;4997581;28;20053;-73
2022/11/01 12:50:27;;;;;;;38.60;5.43;;;14.80;99.90;;;;;;4996531;28;20065;-73
2022/11/01 12:52:58;;;;;;;31.63;5.03;;;14.80;99.90;;;;;;5014826;28;20058;-73
2022/11/01 12:55:31;;;;;;;41.30;4.97;;;14.90;99.90;;;;;;5013403;28;20050;-73
2022/11/01 12:57:58;;;;;;;33.33;4.80;;;14.90;99.90;;;;;;4997616;28;20061;-73
2022/11/01 13:00:41;;;;;;;36.50;5.20;;;14.90;99.90;;;;;;5014598;28;20050;-75
2022/11/01 13:03:40;;;;;;;38.45;5.95;;;14.90;99.90;;;;;;5013438;28;20042;-73
2022/11/01 13:06:35;;;;;;;38.75;5.80;;;14.80;99.90;;;;;;4997161;28;20069;-74
2022/11/01 13:09:05;;;;;;;38.90;4.90;;;14.70;99.90;;;;;;5013522;28;20053;-74
2022/11/01 13:12:11;;;;;;;36.70;5.38;;;14.60;99.90;;;;;;5014156;28;20041;-73